TimeEDT,TemperatureF,Dew PointF,Humidity,Sea Level PressureIn,VisibilityMPH,Wind Direction,Wind SpeedMPH,Gust SpeedMPH,PrecipitationIn,Events,Conditions,WindDirDegrees,DateUTC
12:53 AM,64.0,55.9,75,30.24,10.0,ESE,3.5,-,N/A,,Clear,110,2012-09-12 04:53:00
1:53 AM,64.0,55.9,75,30.23,10.0,SSE,3.5,-,N/A,,Clear,160,2012-09-12 05:53:00
2:53 AM,62.1,55.9,80,30.24,10.0,Calm,Calm,-,N/A,,Clear,0,2012-09-12 06:53:00
3:53 AM,61.0,55.9,83,30.24,10.0,South,3.5,-,N/A,,Clear,170,2012-09-12 07:53:00
4:53 AM,61.0,55.9,83,30.24,10.0,Calm,Calm,-,N/A,,Scattered Clouds,0,2012-09-12 08:53:00
5:53 AM,60.1,55.9,86,30.25,10.0,Calm,Calm,-,N/A,,Partly Cloudy,0,2012-09-12 09:53:00
6:53 AM,60.1,55.0,83,30.27,10.0,Calm,Calm,-,N/A,,Clear,0,2012-09-12 10:53:00
7:53 AM,61.0,55.9,83,30.30,10.0,Calm,Calm,-,N/A,,Scattered Clouds,0,2012-09-12 11:53:00
8:53 AM,64.0,57.0,78,30.30,10.0,Calm,Calm,-,N/A,,Partly Cloudy,0,2012-09-12 12:53:00
9:53 AM,66.9,57.9,73,30.32,10.0,Calm,Calm,-,N/A,,Partly Cloudy,0,2012-09-12 13:53:00
10:53 AM,70.0,60.1,71,30.33,10.0,Calm,Calm,-,N/A,,Mostly Cloudy,0,2012-09-12 14:53:00
11:53 AM,75.0,60.1,60,30.32,10.0,Calm,Calm,-,N/A,,Clear,0,2012-09-12 15:53:00
12:53 PM,79.0,60.1,52,30.31,10.0,Calm,Calm,-,N/A,,Clear,0,2012-09-12 16:53:00
1:53 PM,80.1,57.9,47,30.29,10.0,Calm,Calm,-,N/A,,Partly Cloudy,0,2012-09-12 17:53:00
2:53 PM,81.0,57.9,45,30.26,10.0,Variable,4.6,-,N/A,,Mostly Cloudy,0,2012-09-12 18:53:00
3:53 PM,81.0,59.0,47,30.24,10.0,Variable,3.5,-,N/A,,Clear,0,2012-09-12 19:53:00
4:53 PM,79.0,55.9,45,30.23,10.0,Calm,Calm,-,N/A,,Clear,0,2012-09-12 20:53:00
5:53 PM,79.0,55.9,45,30.22,10.0,Calm,Calm,-,N/A,,Clear,0,2012-09-12 21:53:00
6:53 PM,77.0,57.0,50,30.23,10.0,Calm,Calm,-,N/A,,Clear,0,2012-09-12 22:53:00
7:53 PM,75.0,55.0,50,30.24,10.0,Calm,Calm,-,N/A,,Clear,0,2012-09-12 23:53:00
8:53 PM,75.0,55.9,51,30.25,10.0,SE,3.5,-,N/A,,Clear,130,2012-09-13 00:53:00
9:53 PM,73.9,55.9,53,30.25,10.0,ESE,3.5,-,N/A,,Scattered Clouds,110,2012-09-13 01:53:00
10:53 PM,71.1,57.0,61,30.25,10.0,Calm,Calm,-,N/A,,Clear,0,2012-09-13 02:53:00
11:53 PM,70.0,57.0,63,30.25,10.0,ESE,3.5,-,N/A,,Clear,110,2012-09-13 03:53:00